createdAt,value
2022-11-05T00:09:33.410Z,103.30
2022-11-05T00:24:56.200Z,103.79
2022-11-05T00:40:02.271Z,103.15
2022-11-05T00:55:08.705Z,104.02
2022-11-05T01:10:14.292Z,104.14
2022-11-05T01:25:20.046Z,103.21
2022-11-05T01:40:26.665Z,104.74
2022-11-05T01:55:35.616Z,104.30
2022-11-05T02:10:41.785Z,104.81
2022-11-05T02:26:19.523Z,104.60
2022-11-05T02:41:33.935Z,105.25
2022-11-05T02:56:43.180Z,105.04
2022-11-05T03:11:59.817Z,105.84
2022-11-05T03:27:10.505Z,105.75
2022-11-05T03:42:19.265Z,106.01
2022-11-05T03:57:28.486Z,105.99
2022-11-05T04:12:51.287Z,107.03
2022-11-05T04:28:01.421Z,107.65
2022-11-05T04:43:13.607Z,107.44
2022-11-05T04:58:21.037Z,107.56
2022-11-05T05:13:26.657Z,107.59
2022-11-05T05:28:32.329Z,108.06
2022-11-05T05:43:37.980Z,108.52
2022-11-05T05:58:43.843Z,108.37
2022-11-05T06:13:49.552Z,108.57
2022-11-05T06:28:55.243Z,108.59
2022-11-05T06:44:01.386Z,108.38
2022-11-05T06:59:08.842Z,107.91
2022-11-05T07:14:14.427Z,107.56
2022-11-05T07:29:20.228Z,107.34
2022-11-05T07:44:25.869Z,107.47
2022-11-05T07:59:31.550Z,107.90
2022-11-05T08:14:37.439Z,107.71
2022-11-05T08:29:43.002Z,107.00
2022-11-05T08:44:51.710Z,106.44
2022-11-05T08:59:57.988Z,105.39
2022-11-05T09:15:03.792Z,103.50
2022-11-05T09:30:11.944Z,103.60
2022-11-05T09:45:20.536Z,101.51
2022-11-05T10:00:26.441Z,100.03
2022-11-05T10:15:34.662Z,99.49
2022-11-05T10:30:40.524Z,97.84
2022-11-05T10:45:54.130Z,97.84
2022-11-05T11:01:09.662Z,96.90
2022-11-05T11:16:22.828Z,94.91
2022-11-05T11:31:31.114Z,95.17
2022-11-05T11:46:37.940Z,91.79
2022-11-05T12:02:15.453Z,91.51
2022-11-05T12:17:35.418Z,89.50
2022-11-05T12:33:03.957Z,88.41
2022-11-05T12:48:32.811Z,85.73
2022-11-05T13:03:45.942Z,83.71
2022-11-05T13:18:54.207Z,85.15
2022-11-05T13:34:02.182Z,86.03
2022-11-05T13:49:42.051Z,85.61
2022-11-05T14:04:51.159Z,85.24
2022-11-05T14:20:26.819Z,83.18
2022-11-05T14:35:40.621Z,84.01
2022-11-05T14:50:46.622Z,86.61
2022-11-05T15:06:21.424Z,86.31
2022-11-05T15:21:28.949Z,82.29
2022-11-05T15:36:34.723Z,87.28
2022-11-05T15:51:40.361Z,90.82
2022-11-05T16:06:48.557Z,91.60
2022-11-05T16:21:57.017Z,93.74
2022-11-05T16:37:02.898Z,93.59
2022-11-05T16:52:11.162Z,96.19
2022-11-05T17:07:17.135Z,97.89
2022-11-05T17:22:22.953Z,98.81
2022-11-05T17:37:28.892Z,99.59
2022-11-05T17:52:34.563Z,100.91
2022-11-05T18:07:40.711Z,100.99
2022-11-05T18:22:46.495Z,102.25
2022-11-05T18:37:53.240Z,103.78
2022-11-05T18:52:58.954Z,103.70
2022-11-05T19:08:05.209Z,104.11
2022-11-05T19:23:10.762Z,104.89
2022-11-05T19:38:16.359Z,104.52
2022-11-05T19:53:22.142Z,104.95
2022-11-05T20:08:27.893Z,105.28
2022-11-05T20:23:33.924Z,105.03
2022-11-05T20:38:39.640Z,105.03
2022-11-05T20:53:46.409Z,105.75
2022-11-05T21:08:52.821Z,105.11
2022-11-05T21:23:59.354Z,105.37
2022-11-05T21:39:10.456Z,106.30
2022-11-05T21:54:35.935Z,106.14
2022-11-05T22:09:42.067Z,107.26
2022-11-05T22:24:47.780Z,107.44
2022-11-05T22:39:53.544Z,107.24
2022-11-05T22:54:59.392Z,107.22
2022-11-05T23:10:22.738Z,107.15
2022-11-05T23:25:28.553Z,106.74
2022-11-05T23:40:55.671Z,106.99
2022-11-05T23:56:06.400Z,107.97
